This is the latest recevied weather packets stored in our database for station/object AK6MW. If no packets are shown the sender has not sent any weather packets the latest 10 day(s).
| Time | Temp. | Humidity | Pressure | Rain* | Wind** | Luminosity | Snow |
|---|---|---|---|---|---|---|---|
| 1777805927 | 9.44° C | 50% | 1013.1 hPa | - | - | - | - |
| 1777804127 | 8.89° C | 49% | 1013.2 hPa | - | - | - | - |
| 1777797526 | 10.56° C | 45% | 1014.1 hPa | - | - | - | - |
| 1777794548 | 14.44° C | 33% | 1014.1 hPa | - | - | - | - |
| 1777789126 | 14.44° C | 32% | 1014.6 hPa | - | - | - | - |
| 1777788526 | 13.89° C | 38% | 1014.5 hPa | - | - | - | - |
| 1777781326 | 18.33° C | 25% | 1014.1 hPa | - | - | - | - |
| 1777777727 | 18.33° C | 26% | 1013.5 hPa | - | - | - | - |
| 1777772347 | 22.78° C | 22% | 1013.5 hPa | - | - | - | - |
| 1777770526 | 23.33° C | 22% | 1014 hPa | - | - | - | - |
| 1777769967 | 23.89° C | 23% | 1013.8 hPa | - | - | - | - |
| 1777762127 | 27.78° C | 20% | 1014.6 hPa | - | - | - | - |
| 1777761527 | 27.78° C | 20% | 1014.6 hPa | - | - | - | - |
| 1777755526 | 26.67° C | 20% | 1015.9 hPa | - | - | - | - |
| 1777751928 | 26.11° C | 22% | 1016.3 hPa | - | - | - | - |
| 1777744726 | 24.44° C | 21% | 1016.7 hPa | - | - | - | - |
| 1777741727 | 23.89° C | 24% | 1017 hPa | - | - | - | - |
| 1777737528 | 22.22° C | 28% | 1016.7 hPa | - | - | - | - |
| 1777729726 | 6.67° C | 88% | 1016.2 hPa | - | - | - | - |
| 1777728568 | 5.56° C | 93% | 1015.9 hPa | - | - | - | - |
| 1777727326 | 5.56° C | 93% | 1015.8 hPa | - | - | - | - |
| 1777723125 | 6.11° C | 93% | 1015.9 hPa | - | - | - | - |
| 1777721326 | 6.11° C | 92% | 1016.2 hPa | - | - | - | - |
| 1777720126 | 6.67° C | 92% | 1016 hPa | - | - | - | - |
| 1777712926 | 7.78° C | 90% | 1017 hPa | - | - | - | - |
* Rain since midnight (hover to see other rain measurements)
** Current wind speed in m/s (hover to see current wind gust speed)